Terminal Aerodrome Forecast
Issued by NWS

Home | Current Version | Previous Version | Text Only | Print | Product List | Glossary On
Versions: 1 2 3 4 5 6 7 8 9 10 11 12 13 14 15 16 17 18 19 20 21 22
000
FTUS46 KLOX 261744
TAFPRB
TAF
KPRB 261744Z 2618/2718 VRB03KT P6SM SKC
     FM262000 22012KT P6SM SCT250
     FM270500 29009KT P6SM SCT250
     FM270900 VRB03KT P6SM BKN007
     FM271300 VRB03KT 5SM BR OVC004
     FM271700 31007KT P6SM SCT007=

USA.gov is the U.S. government's official web portal to all federal, state and local government web resources and services.